Time;durP1;ratioP1;P1;durP2;ratioP2;P2;SDS_P1;SDS_P2;PMS_P1;PMS_P2;Temp;Humidity;BMP_temperature;BMP_pressure;BME280_temperature;BME280_humidity;BME280_pressure;Samples;Min_cycle;Max_cycle;Signal;HPM_P1;HPM_P2
2023/09/19 00:00:58;;;;;;;11.15;1.45;;;11.20;99.90;;;;;;5109494;28;19924;-65
2023/09/19 00:03:26;;;;;;;11.60;1.88;;;11.20;99.90;;;;;;5117076;27;20395;-62
2023/09/19 00:05:55;;;;;;;9.27;2.08;;;11.20;99.90;;;;;;5109296;27;20043;-62
2023/09/19 00:08:23;;;;;;;7.13;1.25;;;11.20;99.90;;;;;;5109146;28;20052;-62
2023/09/19 00:10:50;;;;;;;8.75;1.20;;;11.20;99.90;;;;;;5109005;28;20047;-63
2023/09/19 00:13:18;;;;;;;13.85;1.77;;;11.30;99.90;;;;;;5110096;27;20429;-62
2023/09/19 00:15:48;;;;;;;13.80;1.55;;;11.20;99.90;;;;;;5128968;27;20054;-62
2023/09/19 00:18:20;;;;;;;12.63;1.77;;;11.20;99.90;;;;;;5111674;27;20050;-62
2023/09/19 00:20:49;;;;;;;12.77;1.55;;;11.20;99.90;;;;;;5108745;28;20051;-62
2023/09/19 00:23:19;;;;;;;18.55;1.98;;;11.20;99.90;;;;;;5109751;27;20036;-62
2023/09/19 00:25:48;;;;;;;8.60;1.45;;;11.20;99.90;;;;;;5108344;28;20044;-62
2023/09/19 00:28:17;;;;;;;10.73;1.73;;;11.30;99.90;;;;;;5105134;27;20043;-62
2023/09/19 00:30:49;;;;;;;5.80;1.30;;;11.30;99.90;;;;;;5129422;27;20515;-63
2023/09/19 00:33:19;;;;;;;10.43;1.73;;;11.30;99.90;;;;;;5121776;27;20052;-63
2023/09/19 00:35:54;;;;;;;11.90;1.60;;;11.30;99.90;;;;;;5107382;27;20054;-62
2023/09/19 00:38:26;;;;;;;9.73;1.45;;;11.30;99.90;;;;;;5093160;28;20479;-62
2023/09/19 00:40:56;;;;;;;11.93;1.45;;;11.40;99.90;;;;;;5108879;28;20063;-62
2023/09/19 00:43:27;;;;;;;9.38;1.58;;;11.30;99.90;;;;;;5094444;27;20273;-62
2023/09/19 00:45:56;;;;;;;11.85;1.77;;;11.30;99.90;;;;;;5111069;27;20348;-63
2023/09/19 00:48:28;;;;;;;12.15;1.83;;;11.40;99.90;;;;;;5113051;27;20043;-62
2023/09/19 00:51:01;;;;;;;13.07;1.58;;;11.40;99.90;;;;;;5123051;27;20039;-61
2023/09/19 00:53:31;;;;;;;16.08;1.88;;;11.40;99.90;;;;;;5115278;27;20043;-61
2023/09/19 00:55:58;;;;;;;10.70;1.65;;;11.40;99.90;;;;;;5127505;27;20467;-62
2023/09/19 00:58:32;;;;;;;10.25;1.48;;;11.40;99.90;;;;;;5092105;28;20046;-62
2023/09/19 01:01:03;;;;;;;16.88;2.60;;;11.40;99.90;;;;;;5107907;28;20043;-62
2023/09/19 01:03:31;;;;;;;12.27;1.92;;;11.40;99.90;;;;;;5094822;28;20043;-61
2023/09/19 01:06:00;;;;;;;9.70;1.80;;;11.40;99.90;;;;;;5107664;27;20502;-62
2023/09/19 01:08:29;;;;;;;12.55;2.13;;;11.40;99.90;;;;;;5106410;28;20048;-61
2023/09/19 01:11:21;;;;;;;13.73;1.95;;;11.40;99.90;;;;;;5107306;28;20059;-60
2023/09/19 01:13:57;;;;;;;11.15;1.67;;;11.40;99.90;;;;;;5117179;28;20053;-59
2023/09/19 01:16:46;;;;;;;14.48;1.92;;;11.30;99.90;;;;;;5128420;28;20043;-60
2023/09/19 01:20:07;;;;;;;11.40;1.45;;;11.40;99.90;;;;;;5121238;28;20050;-61
2023/09/19 01:23:01;;;;;;;17.08;1.70;;;11.40;99.90;;;;;;5064267;28;20059;-59
2023/09/19 01:25:48;;;;;;;16.92;2.75;;;11.40;99.90;;;;;;5071108;28;20056;-62
2023/09/19 01:28:39;;;;;;;15.40;2.65;;;11.40;99.90;;;;;;5097635;28;20403;-62
2023/09/19 01:31:11;;;;;;;13.45;1.88;;;11.40;99.90;;;;;;5100070;28;20044;-63
2023/09/19 01:34:03;;;;;;;11.38;1.90;;;11.40;99.90;;;;;;5089501;28;20036;-62
2023/09/19 01:36:38;;;;;;;16.52;2.33;;;11.40;99.90;;;;;;5110489;28;20372;-62
2023/09/19 01:39:13;;;;;;;15.63;2.70;;;11.50;99.90;;;;;;5092958;28;20063;-63
2023/09/19 01:42:04;;;;;;;14.25;2.00;;;11.50;99.90;;;;;;5110150;28;20063;-62
2023/09/19 01:44:48;;;;;;;15.02;1.80;;;11.50;99.90;;;;;;5110343;28;20074;-62
2023/09/19 01:47:50;;;;;;;15.48;2.45;;;11.50;99.90;;;;;;5108429;28;20047;-62
2023/09/19 01:50:31;;;;;;;21.52;2.95;;;11.50;99.90;;;;;;5111204;28;20048;-61
2023/09/19 01:53:09;;;;;;;;;;;11.50;99.90;;;;;;5091210;28;20483;-62
2023/09/19 01:55:43;;;;;;;15.35;2.85;;;11.50;99.90;;;;;;5090918;28;19923;-62
2023/09/19 01:58:20;;;;;;;12.18;2.10;;;11.50;99.90;;;;;;5102343;28;20039;-61
2023/09/19 02:00:53;;;;;;;16.75;1.88;;;11.50;99.90;;;;;;5109773;28;20044;-62
2023/09/19 02:03:24;;;;;;;16.35;2.30;;;11.60;99.90;;;;;;5109728;28;20390;-63
2023/09/19 02:05:53;;;;;;;11.60;1.70;;;11.60;99.90;;;;;;5103239;28;20050;-63
2023/09/19 02:08:23;;;;;;;13.63;2.10;;;11.60;99.90;;;;;;5090870;28;20048;-62
2023/09/19 02:10:52;;;;;;;18.40;2.28;;;11.60;99.90;;;;;;5092611;28;20297;-61
2023/09/19 02:13:24;;;;;;;16.77;2.47;;;11.70;99.90;;;;;;5109711;28;20087;-64
2023/09/19 02:15:52;;;;;;;15.10;2.45;;;11.70;99.90;;;;;;5112951;28;20035;-63
2023/09/19 02:18:20;;;;;;;14.68;2.08;;;11.70;99.90;;;;;;5112428;28;20437;-62
2023/09/19 02:20:47;;;;;;;17.05;2.40;;;11.70;99.90;;;;;;5114722;28;20044;-62
2023/09/19 02:23:15;;;;;;;13.05;2.20;;;11.70;99.90;;;;;;5113555;28;20044;-62
2023/09/19 02:25:51;;;;;;;16.80;2.40;;;11.70;99.90;;;;;;5112502;28;20043;-64
2023/09/19 02:28:18;;;;;;;14.65;2.47;;;11.70;99.90;;;;;;5122884;27;20035;-61
2023/09/19 02:30:50;;;;;;;17.95;2.85;;;11.70;99.90;;;;;;5125206;27;20036;-61
2023/09/19 02:33:17;;;;;;;12.32;2.50;;;11.80;99.90;;;;;;5113265;28;20547;-61
2023/09/19 02:35:46;;;;;;;13.90;2.17;;;11.80;99.90;;;;;;5113182;28;20043;-62
2023/09/19 02:38:14;;;;;;;11.93;2.03;;;11.70;99.90;;;;;;5111915;28;20044;-61
2023/09/19 02:40:43;;;;;;;14.82;2.70;;;11.80;99.90;;;;;;5112138;28;20517;-62
2023/09/19 02:43:11;;;;;;;15.40;2.55;;;11.70;99.90;;;;;;5113514;28;20494;-62
2023/09/19 02:45:39;;;;;;;17.80;2.03;;;11.80;99.90;;;;;;5113027;28;20043;-63
2023/09/19 02:48:07;;;;;;;17.10;2.20;;;11.70;99.90;;;;;;5113956;28;20067;-62
2023/09/19 02:50:35;;;;;;;17.05;2.55;;;11.70;99.90;;;;;;5112913;28;20051;-62
2023/09/19 02:53:03;;;;;;;14.48;2.35;;;11.70;99.90;;;;;;5112213;28;20047;-60
2023/09/19 02:55:31;;;;;;;14.48;2.95;;;11.70;99.90;;;;;;5114013;28;20040;-62
2023/09/19 02:58:01;;;;;;;18.65;2.33;;;11.70;99.90;;;;;;5119477;27;20047;-62
2023/09/19 03:00:29;;;;;;;18.02;2.33;;;11.70;99.90;;;;;;5117230;27;20066;-62
2023/09/19 03:02:57;;;;;;;16.23;2.67;;;11.70;99.90;;;;;;5112262;28;20058;-62
2023/09/19 03:05:26;;;;;;;20.63;2.38;;;11.60;99.90;;;;;;5111232;27;20403;-63
2023/09/19 03:07:55;;;;;;;10.07;1.88;;;11.60;99.90;;;;;;5095865;28;20050;-62
2023/09/19 03:10:24;;;;;;;15.30;2.38;;;11.60;99.90;;;;;;5112276;28;20443;-62
2023/09/19 03:12:53;;;;;;;19.45;2.58;;;11.60;99.90;;;;;;5112034;28;20043;-62
2023/09/19 03:15:21;;;;;;;15.27;2.55;;;11.60;99.90;;;;;;5112385;28;20054;-61
2023/09/19 03:17:53;;;;;;;22.00;2.75;;;11.60;99.90;;;;;;5112263;28;20055;-62
2023/09/19 03:20:23;;;;;;;11.82;2.13;;;11.60;99.90;;;;;;5113729;28;20039;-60
2023/09/19 03:22:52;;;;;;;11.48;2.17;;;11.60;99.90;;;;;;5112103;28;20509;-61
2023/09/19 03:25:22;;;;;;;18.13;1.93;;;11.60;99.90;;;;;;5112126;28;20232;-57
2023/09/19 03:27:52;;;;;;;21.98;2.40;;;11.50;99.90;;;;;;5115083;27;20044;-58
2023/09/19 03:30:21;;;;;;;18.20;4.25;;;11.60;99.90;;;;;;5132572;27;20051;-58
2023/09/19 03:32:49;;;;;;;17.33;2.33;;;11.50;99.90;;;;;;5117489;27;20035;-58
2023/09/19 03:35:19;;;;;;;13.68;2.53;;;11.50;99.90;;;;;;5111326;27;20047;-58
2023/09/19 03:37:47;;;;;;;14.40;2.75;;;11.50;99.90;;;;;;5112077;28;20035;-58
2023/09/19 03:40:17;;;;;;;9.70;1.98;;;11.50;99.90;;;;;;5111531;28;20479;-58
2023/09/19 03:42:46;;;;;;;15.80;2.80;;;11.50;99.90;;;;;;5115024;27;20039;-58
2023/09/19 03:45:15;;;;;;;9.60;2.15;;;11.50;99.90;;;;;;5134086;27;20043;-58
2023/09/19 03:47:52;;;;;;;19.02;2.70;;;11.50;99.90;;;;;;5132427;27;20043;-60
2023/09/19 03:50:23;;;;;;;15.10;2.33;;;11.50;99.90;;;;;;5124548;27;20035;-60
2023/09/19 03:52:57;;;;;;;15.05;1.95;;;11.50;99.90;;;;;;5117029;27;20523;-61
2023/09/19 03:55:25;;;;;;;12.63;1.83;;;11.50;99.90;;;;;;5111609;28;20055;-61
2023/09/19 03:57:53;;;;;;;17.75;2.70;;;11.50;99.90;;;;;;5117615;27;20051;-61
2023/09/19 04:00:23;;;;;;;15.02;2.42;;;11.60;99.90;;;;;;5132109;27;20368;-60
2023/09/19 04:02:52;;;;;;;15.05;2.17;;;11.60;99.90;;;;;;5083367;28;20036;-59
2023/09/19 04:05:20;;;;;;;16.33;1.95;;;11.60;99.90;;;;;;5110572;27;20044;-60
2023/09/19 04:07:47;;;;;;;14.18;2.38;;;11.60;99.90;;;;;;5110792;28;20047;-60
2023/09/19 04:10:15;;;;;;;17.63;2.08;;;11.60;99.90;;;;;;5102614;28;20522;-61
2023/09/19 04:12:53;;;;;;;18.38;2.58;;;11.60;99.90;;;;;;5090962;28;20047;-61
2023/09/19 04:15:23;;;;;;;17.77;2.72;;;11.60;99.90;;;;;;5110861;28;20039;-59
2023/09/19 04:17:53;;;;;;;15.88;1.65;;;11.70;99.90;;;;;;5111196;28;20407;-60
2023/09/19 04:20:24;;;;;;;10.18;2.15;;;11.70;99.90;;;;;;5111070;28;20059;-60
2023/09/19 04:22:52;;;;;;;15.82;2.45;;;11.70;99.90;;;;;;5130251;27;20054;-61
2023/09/19 04:25:20;;;;;;;15.43;2.50;;;11.60;99.90;;;;;;5114490;27;20498;-59
2023/09/19 04:27:48;;;;;;;20.42;2.53;;;11.60;99.90;;;;;;5115496;27;20039;-61
2023/09/19 04:30:16;;;;;;;15.68;3.13;;;11.60;99.90;;;;;;5132834;27;20507;-61
2023/09/19 04:32:43;;;;;;;16.55;2.53;;;11.60;99.90;;;;;;5132643;27;20046;-61
2023/09/19 04:35:11;;;;;;;16.65;2.33;;;11.60;99.90;;;;;;5113029;27;20047;-60
2023/09/19 04:37:40;;;;;;;22.88;3.22;;;11.60;99.90;;;;;;5109486;27;20040;-60
2023/09/19 04:40:12;;;;;;;21.25;2.90;;;11.50;99.90;;;;;;5111920;28;20044;-61
2023/09/19 04:42:41;;;;;;;24.35;3.00;;;11.50;99.90;;;;;;5106634;28;20051;-60
2023/09/19 04:45:10;;;;;;;16.67;2.28;;;11.50;99.90;;;;;;5099225;28;20387;-60
2023/09/19 04:47:41;;;;;;;15.70;2.47;;;11.50;99.90;;;;;;5104924;28;20834;-61
2023/09/19 04:50:13;;;;;;;18.52;2.67;;;11.50;99.90;;;;;;5092416;28;20043;-59
2023/09/19 04:52:44;;;;;;;14.45;2.17;;;11.50;99.90;;;;;;5101526;28;20054;-60
2023/09/19 04:55:18;;;;;;;18.73;2.95;;;11.50;99.90;;;;;;5100581;28;20403;-60
2023/09/19 04:57:50;;;;;;;14.32;2.35;;;11.50;99.90;;;;;;5108865;27;20054;-60
2023/09/19 05:00:27;;;;;;;17.77;3.17;;;11.50;99.90;;;;;;5106884;27;20552;-60
2023/09/19 05:02:56;;;;;;;22.15;3.03;;;11.50;99.90;;;;;;5090058;28;20039;-60
2023/09/19 05:05:25;;;;;;;16.15;2.95;;;11.50;99.90;;;;;;5085748;28;20051;-61
2023/09/19 05:07:54;;;;;;;16.20;3.70;;;11.50;99.90;;;;;;5106132;28;20050;-60
2023/09/19 05:10:22;;;;;;;19.35;3.55;;;11.50;99.90;;;;;;5103599;28;20048;-60
2023/09/19 05:12:53;;;;;;;19.00;3.50;;;11.50;99.90;;;;;;5114465;28;20039;-60
2023/09/19 05:15:21;;;;;;;17.60;3.50;;;11.50;99.90;;;;;;5118559;28;20044;-60
2023/09/19 05:17:50;;;;;;;17.98;2.63;;;11.50;99.90;;;;;;5109480;28;20047;-59
2023/09/19 05:20:29;;;;;;;13.18;2.97;;;11.50;99.90;;;;;;5118920;28;20044;-60
2023/09/19 05:23:08;;;;;;;16.17;3.00;;;11.60;99.90;;;;;;5106376;28;20048;-60
2023/09/19 05:25:38;;;;;;;15.73;3.10;;;11.60;99.90;;;;;;5107888;28;20047;-59
2023/09/19 05:28:08;;;;;;;13.90;2.60;;;11.60;99.90;;;;;;5114777;28;20039;-60
2023/09/19 05:30:38;;;;;;;11.50;3.28;;;11.70;99.90;;;;;;5129038;28;20051;-59
2023/09/19 05:33:07;;;;;;;16.08;3.30;;;11.70;99.90;;;;;;5122194;28;20058;-60
2023/09/19 05:35:41;;;;;;;15.63;1.92;;;11.70;99.90;;;;;;5120731;28;20376;-59
2023/09/19 05:38:09;;;;;;;15.55;2.95;;;11.70;99.90;;;;;;5124921;28;20057;-60
2023/09/19 05:40:38;;;;;;;10.30;3.38;;;11.80;99.90;;;;;;5114969;28;20047;-61
2023/09/19 05:43:06;;;;;;;12.75;3.42;;;11.80;99.90;;;;;;5116464;28;20120;-60
2023/09/19 05:45:35;;;;;;;13.18;2.38;;;11.80;99.90;;;;;;5125241;28;20297;-59
2023/09/19 05:48:11;;;;;;;11.50;2.15;;;11.90;99.90;;;;;;5113108;28;20391;-59
2023/09/19 05:50:40;;;;;;;9.38;2.85;;;11.90;99.90;;;;;;5100647;27;20043;-60
2023/09/19 05:53:11;;;;;;;18.35;3.08;;;11.90;99.90;;;;;;5107476;27;20058;-59
2023/09/19 05:55:40;;;;;;;10.68;2.22;;;11.90;99.90;;;;;;5111245;28;20047;-60
2023/09/19 05:58:08;;;;;;;20.45;2.30;;;12.00;99.90;;;;;;5108857;27;20069;-60
2023/09/19 06:00:36;;;;;;;13.00;2.67;;;12.00;99.90;;;;;;5132514;27;20039;-59
2023/09/19 06:03:06;;;;;;;12.77;2.10;;;12.00;99.90;;;;;;5129581;27;20051;-60
2023/09/19 06:05:34;;;;;;;6.28;2.13;;;12.10;99.90;;;;;;5120532;27;20047;-58
2023/09/19 06:08:07;;;;;;;9.73;1.60;;;12.10;99.90;;;;;;5095389;28;20047;-58
2023/09/19 06:10:35;;;;;;;9.88;1.92;;;12.10;99.90;;;;;;5107429;28;20052;-57
2023/09/19 06:13:09;;;;;;;9.95;2.50;;;12.20;99.90;;;;;;5107706;27;20376;-57
2023/09/19 06:15:37;;;;;;;8.85;2.33;;;12.20;99.90;;;;;;5108337;28;20054;-58
2023/09/19 06:18:13;;;;;;;12.88;2.33;;;12.30;99.90;;;;;;5110840;28;20392;-58
2023/09/19 06:20:44;;;;;;;16.52;2.80;;;12.30;99.90;;;;;;5103933;27;20348;-59
2023/09/19 06:23:13;;;;;;;9.18;2.50;;;12.30;99.90;;;;;;5098558;28;20044;-59
2023/09/19 06:25:40;;;;;;;12.05;3.67;;;12.40;99.90;;;;;;5108523;28;20055;-60
2023/09/19 06:28:13;;;;;;;12.15;2.40;;;12.40;99.90;;;;;;5118036;27;20043;-59
2023/09/19 06:30:40;;;;;;;12.57;2.75;;;12.50;99.90;;;;;;5130742;27;20043;-60
2023/09/19 06:33:08;;;;;;;11.55;2.05;;;12.50;99.90;;;;;;5111001;27;20509;-60
2023/09/19 06:35:36;;;;;;;10.20;1.85;;;12.50;99.90;;;;;;5105058;27;20047;-61
2023/09/19 06:38:05;;;;;;;7.53;2.05;;;12.60;99.90;;;;;;5110103;28;20039;-60
2023/09/19 06:40:36;;;;;;;10.00;2.50;;;12.60;99.90;;;;;;5099648;27;20044;-59
2023/09/19 06:43:05;;;;;;;9.68;2.15;;;12.70;99.90;;;;;;5100738;27;20047;-59
2023/09/19 06:45:33;;;;;;;9.53;2.00;;;12.80;99.90;;;;;;5091462;27;20062;-59
2023/09/19 06:48:02;;;;;;;13.13;2.58;;;12.80;99.90;;;;;;5100360;27;20043;-59
2023/09/19 06:50:32;;;;;;;7.55;2.08;;;12.90;99.90;;;;;;5095410;27;20070;-60
2023/09/19 06:53:01;;;;;;;;;;;12.90;99.90;;;;;;5103293;27;20032;-60
2023/09/19 06:55:31;;;;;;;10.13;1.90;;;13.00;99.90;;;;;;5107299;28;19919;-60
2023/09/19 06:58:00;;;;;;;11.15;2.22;;;13.00;99.90;;;;;;5099925;27;20042;-59
2023/09/19 07:00:31;;;;;;;12.65;2.67;;;13.10;99.90;;;;;;5111670;27;20039;-59
2023/09/19 07:03:00;;;;;;;13.68;2.40;;;13.10;99.90;;;;;;5096729;28;20418;-60
2023/09/19 07:05:30;;;;;;;10.65;2.70;;;13.20;99.90;;;;;;5106129;27;20043;-60
2023/09/19 07:08:02;;;;;;;10.10;2.47;;;13.30;99.90;;;;;;5103350;27;20047;-60
2023/09/19 07:10:30;;;;;;;8.27;2.50;;;13.30;99.90;;;;;;5127600;27;20051;-61
2023/09/19 07:13:03;;;;;;;14.05;3.03;;;13.30;99.90;;;;;;5116072;27;20047;-60
2023/09/19 07:15:38;;;;;;;9.30;3.13;;;13.40;99.90;;;;;;5085424;28;20033;-61
2023/09/19 07:18:10;;;;;;;11.50;2.28;;;13.40;99.90;;;;;;5085041;28;20056;-60
2023/09/19 07:20:39;;;;;;;12.07;2.60;;;13.40;99.90;;;;;;5100181;27;20529;-60
2023/09/19 07:23:06;;;;;;;10.55;2.67;;;13.50;99.90;;;;;;5103594;27;20066;-61
2023/09/19 07:25:36;;;;;;;15.48;2.60;;;13.60;99.90;;;;;;5105206;28;20040;-60
2023/09/19 07:28:04;;;;;;;12.03;2.10;;;13.60;99.90;;;;;;5100840;27;20055;-60
2023/09/19 07:30:32;;;;;;;14.25;2.90;;;13.70;99.90;;;;;;5096728;27;20479;-61
2023/09/19 07:33:00;;;;;;;13.43;2.72;;;13.70;99.90;;;;;;5108202;27;20054;-60
2023/09/19 07:35:27;;;;;;;9.25;2.20;;;13.80;99.90;;;;;;5109840;28;20035;-60
2023/09/19 07:37:56;;;;;;;8.60;2.53;;;13.90;99.90;;;;;;5104893;28;20043;-61
2023/09/19 07:40:26;;;;;;;11.50;2.28;;;13.90;99.90;;;;;;5109300;28;20054;-60
2023/09/19 07:42:55;;;;;;;7.03;1.95;;;14.10;99.90;;;;;;5108772;28;20039;-60
2023/09/19 07:45:25;;;;;;;4.63;1.63;;;14.10;99.90;;;;;;5108115;28;20036;-61
2023/09/19 07:47:52;;;;;;;8.23;2.27;;;14.20;99.90;;;;;;5115424;27;20061;-61
2023/09/19 07:50:20;;;;;;;7.20;1.52;;;14.30;99.90;;;;;;5118581;27;20048;-60
2023/09/19 07:52:52;;;;;;;5.95;1.60;;;14.40;99.90;;;;;;5116776;27;20050;-61
2023/09/19 07:55:23;;;;;;;7.20;1.58;;;14.40;99.90;;;;;;5130244;27;20046;-60
2023/09/19 07:57:55;;;;;;;5.10;1.10;;;14.50;99.90;;;;;;5121886;27;20035;-60
2023/09/19 08:00:22;;;;;;;5.43;1.35;;;14.50;99.90;;;;;;5104977;28;20058;-61
2023/09/19 08:02:51;;;;;;;4.65;1.25;;;14.50;99.90;;;;;;5108912;28;20047;-61
2023/09/19 08:05:27;;;;;;;3.92;1.20;;;14.60;99.90;;;;;;5109502;28;20471;-61
2023/09/19 08:07:56;;;;;;;5.53;1.20;;;14.60;99.90;;;;;;5105734;28;20055;-62
2023/09/19 08:10:27;;;;;;;5.65;1.50;;;14.70;99.90;;;;;;5108880;28;20051;-61
2023/09/19 08:12:58;;;;;;;5.15;1.20;;;14.70;99.90;;;;;;5108247;28;20056;-63
2023/09/19 08:15:25;;;;;;;8.80;1.52;;;14.70;99.90;;;;;;5109131;28;20082;-62
2023/09/19 08:17:53;;;;;;;7.03;1.10;;;14.80;99.90;;;;;;5115147;27;20491;-61
2023/09/19 08:20:21;;;;;;;3.30;1.00;;;14.80;99.90;;;;;;5110861;27;20519;-61
2023/09/19 08:22:52;;;;;;;7.15;1.27;;;14.90;99.90;;;;;;5103568;27;20431;-61
2023/09/19 08:25:21;;;;;;;4.38;0.90;;;14.90;99.90;;;;;;5088891;28;20472;-62
2023/09/19 08:27:50;;;;;;;5.47;1.10;;;15.00;99.90;;;;;;5098961;27;20035;-60
2023/09/19 08:30:27;;;;;;;2.70;0.85;;;15.00;99.90;;;;;;5113561;27;20043;-61
2023/09/19 08:33:04;;;;;;;3.95;0.80;;;15.10;99.90;;;;;;5107744;28;20483;-62
2023/09/19 08:35:31;;;;;;;5.18;1.08;;;15.10;99.90;;;;;;5108754;28;20502;-62
2023/09/19 08:38:03;;;;;;;4.50;0.93;;;15.20;99.90;;;;;;5103373;28;20044;-62
2023/09/19 08:40:33;;;;;;;4.80;0.70;;;15.20;99.90;;;;;;5105583;28;20047;-61
2023/09/19 08:43:01;;;;;;;4.75;0.85;;;15.30;99.90;;;;;;5107698;28;20043;-59
2023/09/19 08:45:31;;;;;;;3.20;0.93;;;15.30;99.90;;;;;;5108529;28;20052;-61
2023/09/19 08:48:17;;;;;;;4.45;0.60;;;15.30;99.90;;;;;;5108451;28;20043;-58
2023/09/19 08:51:15;;;;;;;1.35;0.40;;;15.40;99.90;;;;;;5105479;28;20771;-62
2023/09/19 08:54:05;;;;;;;3.75;0.63;;;15.50;99.90;;;;;;5094774;28;20055;-62
2023/09/19 08:56:34;;;;;;;3.10;0.50;;;15.50;99.90;;;;;;5106994;28;20047;-61
2023/09/19 08:59:04;;;;;;;6.20;0.60;;;15.60;99.90;;;;;;5117946;27;20491;-60
2023/09/19 09:01:32;;;;;;;4.93;0.50;;;15.70;99.90;;;;;;5108721;28;20044;-61
2023/09/19 09:04:02;;;;;;;2.55;0.60;;;15.70;99.90;;;;;;5115761;27;20048;-59
2023/09/19 09:06:32;;;;;;;2.60;0.50;;;15.80;99.90;;;;;;5108721;28;20043;-63
2023/09/19 09:09:00;;;;;;;3.25;0.47;;;15.80;99.90;;;;;;5097094;28;20044;-62
2023/09/19 09:11:28;;;;;;;0.90;0.47;;;15.90;99.90;;;;;;5104841;28;20046;-63
2023/09/19 09:13:57;;;;;;;2.72;0.40;;;16.00;99.90;;;;;;5103433;28;20047;-61
2023/09/19 09:16:25;;;;;;;0.20;0.15;;;16.10;99.90;;;;;;5105031;28;20047;-63
2023/09/19 09:18:54;;;;;;;0.40;0.20;;;16.20;99.90;;;;;;5106754;28;20415;-64
2023/09/19 09:21:25;;;;;;;0.55;0.30;;;16.30;99.90;;;;;;5105922;28;20051;-61
2023/09/19 09:23:55;;;;;;;0.35;0.17;;;16.40;99.90;;;;;;5105352;28;20040;-61
2023/09/19 09:26:42;;;;;;;0.20;0.10;;;16.50;99.90;;;;;;5095088;28;20502;-63
2023/09/19 09:29:10;;;;;;;1.25;0.13;;;16.60;99.90;;;;;;5109096;27;20497;-61
2023/09/19 09:31:39;;;;;;;0.55;0.10;;;16.70;99.90;;;;;;5112076;28;20483;-61
2023/09/19 09:34:07;;;;;;;0.30;0.10;;;16.80;99.90;;;;;;5109988;28;20052;-63
2023/09/19 09:36:41;;;;;;;1.27;0.10;;;16.80;99.90;;;;;;5112163;28;20044;-64
2023/09/19 09:39:18;;;;;;;0.45;0.13;;;16.90;99.90;;;;;;5103573;27;20043;-63
2023/09/19 09:41:46;;;;;;;3.08;0.08;;;17.00;99.90;;;;;;5112639;28;20225;-62
2023/09/19 09:44:17;;;;;;;0.00;0.00;;;17.10;99.90;;;;;;5111840;28;20063;-62
2023/09/19 09:49:33;;;;;;;0.47;0.00;;;17.20;99.90;;;;;;5111376;28;20051;-64
2023/09/19 09:52:07;;;;;;;3.42;0.20;;;17.30;99.90;;;;;;5116024;27;20047;-62
2023/09/19 09:54:59;;;;;;;0.98;0.05;;;17.30;99.90;;;;;;5091975;27;20044;-63
2023/09/19 09:57:26;;;;;;;0.68;0.05;;;17.40;99.90;;;;;;5109396;27;20500;-64
2023/09/19 09:59:59;;;;;;;0.43;0.10;;;17.40;99.90;;;;;;5114325;27;20127;-63
2023/09/19 10:02:36;;;;;;;0.30;0.00;;;17.50;99.90;;;;;;5111833;27;20044;-62
2023/09/19 10:07:53;;;;;;;0.08;0.00;;;17.50;99.90;;;;;;5095156;28;20047;-62
2023/09/19 10:10:53;;;;;;;0.20;0.10;;;17.50;99.90;;;;;;5101631;28;20051;-62
2023/09/19 10:13:27;;;;;;;0.63;0.00;;;17.60;99.90;;;;;;5110559;27;20058;-62
2023/09/19 10:15:58;;;;;;;1.33;0.00;;;17.60;99.90;;;;;;5111788;28;20040;-63
2023/09/19 10:18:29;;;;;;;0.13;0.00;;;17.60;99.90;;;;;;5121198;27;20047;-62
2023/09/19 10:20:57;;;;;;;0.45;0.00;;;17.70;99.90;;;;;;5110837;27;20479;-61
2023/09/19 10:23:29;;;;;;;0.13;0.00;;;17.70;99.90;;;;;;5111723;27;20055;-62
2023/09/19 10:26:01;;;;;;;0.22;0.08;;;17.80;99.90;;;;;;5091228;28;20036;-63
2023/09/19 10:28:32;;;;;;;1.67;0.10;;;17.80;99.90;;;;;;5111660;27;20047;-64
2023/09/19 10:31:01;;;;;;;0.35;0.00;;;17.80;99.90;;;;;;5124717;27;20035;-61
2023/09/19 10:33:37;;;;;;;0.30;0.10;;;17.80;99.90;;;;;;5124233;27;20051;-59
2023/09/19 10:36:10;;;;;;;0.40;0.05;;;17.80;99.90;;;;;;5115092;27;20044;-62
2023/09/19 10:38:40;;;;;;;1.20;0.10;;;17.90;99.90;;;;;;5105804;27;20067;-61
2023/09/19 10:41:10;;;;;;;0.10;0.10;;;17.90;99.90;;;;;;5106487;28;20125;-63
2023/09/19 10:43:39;;;;;;;0.38;0.10;;;17.90;99.90;;;;;;5125187;27;20054;-62
2023/09/19 10:46:10;;;;;;;0.45;0.10;;;17.90;99.90;;;;;;5120908;27;20048;-61
2023/09/19 10:48:40;;;;;;;0.38;0.10;;;17.90;99.90;;;;;;5122300;27;20402;-61
2023/09/19 10:51:15;;;;;;;1.27;0.10;;;17.90;99.90;;;;;;5124406;27;20048;-62
2023/09/19 10:53:50;;;;;;;0.63;0.15;;;17.90;99.90;;;;;;5100826;27;20040;-63
2023/09/19 10:56:27;;;;;;;1.00;0.20;;;17.90;99.90;;;;;;5092086;28;20052;-62
2023/09/19 10:59:16;;;;;;;0.35;0.28;;;17.90;99.90;;;;;;5122931;27;20062;-62
2023/09/19 11:01:51;;;;;;;0.28;0.20;;;17.90;99.90;;;;;;5131384;27;20054;-62
2023/09/19 11:04:24;;;;;;;0.52;0.35;;;17.90;99.90;;;;;;5108221;28;20573;-62
2023/09/19 11:07:11;;;;;;;2.00;0.30;;;17.90;99.90;;;;;;5090112;28;20059;-62
2023/09/19 11:09:54;;;;;;;0.20;0.20;;;17.90;99.90;;;;;;5098341;27;20044;-60
2023/09/19 11:12:54;;;;;;;0.20;0.10;;;17.90;99.90;;;;;;5108952;28;20050;-60
2023/09/19 11:15:56;;;;;;;0.55;0.20;;;17.80;99.90;;;;;;5109315;28;20388;-61
2023/09/19 11:18:53;;;;;;;0.75;0.10;;;17.80;99.90;;;;;;5110376;28;20055;-60
2023/09/19 11:21:31;;;;;;;0.85;0.20;;;17.80;99.90;;;;;;5084893;27;20040;-61
2023/09/19 11:24:24;;;;;;;0.40;0.08;;;17.60;99.90;;;;;;5108921;27;20533;-62
2023/09/19 11:27:17;;;;;;;1.30;0.10;;;17.50;99.90;;;;;;5105485;28;20047;-62
2023/09/19 11:29:49;;;;;;;0.28;0.15;;;17.50;99.90;;;;;;5089788;28;20048;-61
2023/09/19 11:32:16;;;;;;;0.10;0.10;;;17.40;99.90;;;;;;5094550;28;20086;-60
2023/09/19 11:34:47;;;;;;;3.25;0.20;;;17.40;99.90;;;;;;5108593;28;20120;-61
2023/09/19 11:37:15;;;;;;;1.08;0.10;;;17.30;99.90;;;;;;5109995;28;20050;-60
2023/09/19 11:40:08;;;;;;;;;;;17.30;99.90;;;;;;5090770;27;20052;-61
2023/09/19 11:42:53;;;;;;;0.00;0.00;;;17.20;99.90;;;;;;5096976;27;20401;-59
2023/09/19 11:45:57;;;;;;;0.13;0.10;;;17.10;99.90;;;;;;5109478;28;20044;-60
2023/09/19 11:48:29;;;;;;;0.47;0.13;;;17.10;99.90;;;;;;5109841;28;20056;-61
2023/09/19 11:50:59;;;;;;;0.65;0.17;;;17.10;99.90;;;;;;5109697;28;20055;-61
2023/09/19 11:53:33;;;;;;;0.10;0.10;;;17.10;99.90;;;;;;5107242;27;20051;-62
2023/09/19 11:56:01;;;;;;;0.93;0.10;;;17.10;99.90;;;;;;5111106;27;20623;-60
2023/09/19 11:58:30;;;;;;;0.57;0.10;;;17.10;99.90;;;;;;5119399;27;20043;-60
2023/09/19 12:01:01;;;;;;;0.10;0.10;;;17.10;99.90;;;;;;5122760;27;20483;-60
2023/09/19 12:03:30;;;;;;;0.38;0.10;;;17.10;99.90;;;;;;5109175;27;20047;-61
2023/09/19 12:05:59;;;;;;;0.10;0.00;;;17.20;99.90;;;;;;5107483;28;20056;-60
2023/09/19 12:08:30;;;;;;;0.28;0.10;;;17.30;99.90;;;;;;5100791;28;20140;-62
2023/09/19 12:10:57;;;;;;;0.10;0.10;;;17.40;99.90;;;;;;5104002;27;20512;-61
2023/09/19 12:13:27;;;;;;;0.05;0.05;;;17.40;99.90;;;;;;5099648;28;20059;-61
2023/09/19 12:16:00;;;;;;;0.20;0.10;;;17.40;99.90;;;;;;5108751;28;20056;-61
2023/09/19 12:18:29;;;;;;;0.25;0.08;;;17.50;99.90;;;;;;5108108;28;20047;-60
2023/09/19 12:21:02;;;;;;;0.20;0.20;;;17.50;99.90;;;;;;5108935;28;20052;-60
2023/09/19 12:23:30;;;;;;;0.30;0.15;;;17.50;99.90;;;;;;5106247;27;20040;-61
2023/09/19 12:26:02;;;;;;;0.70;0.30;;;17.50;99.90;;;;;;5090747;28;20048;-62
2023/09/19 12:28:34;;;;;;;0.10;0.10;;;17.50;99.90;;;;;;5114083;27;20430;-62
2023/09/19 12:31:08;;;;;;;0.10;0.10;;;17.60;99.90;;;;;;5129153;27;20054;-63
2023/09/19 12:33:36;;;;;;;1.17;0.13;;;17.60;99.90;;;;;;5120842;27;20047;-61
2023/09/19 12:36:35;;;;;;;0.10;0.10;;;17.60;99.90;;;;;;5125971;27;20050;-61
2023/09/19 12:39:08;;;;;;;1.15;0.20;;;17.70;99.90;;;;;;5091325;28;20047;-61
2023/09/19 12:41:38;;;;;;;1.65;0.63;;;17.60;99.90;;;;;;5088431;28;20499;-61
2023/09/19 12:44:09;;;;;;;2.90;0.20;;;17.60;99.90;;;;;;5101918;28;20044;-59
2023/09/19 12:46:37;;;;;;;0.85;0.20;;;17.50;99.90;;;;;;5107030;28;20205;-59
2023/09/19 12:49:18;;;;;;;0.88;0.20;;;17.50;99.90;;;;;;5107600;28;20058;-58
2023/09/19 12:51:47;;;;;;;3.50;0.35;;;17.50;99.90;;;;;;5107808;28;20039;-61
2023/09/19 12:54:19;;;;;;;1.60;0.30;;;17.50;99.90;;;;;;5104252;27;20040;-58
2023/09/19 12:56:50;;;;;;;0.45;0.20;;;17.50;99.90;;;;;;5090553;28;20043;-59
2023/09/19 12:59:30;;;;;;;1.20;0.20;;;17.50;99.90;;;;;;5124631;27;20058;-61
2023/09/19 13:02:07;;;;;;;4.93;1.77;;;17.60;99.90;;;;;;5088253;28;20609;-58
2023/09/19 13:04:40;;;;;;;1.95;0.30;;;17.60;99.90;;;;;;5105440;28;20058;-59
2023/09/19 13:07:09;;;;;;;2.03;0.30;;;17.70;99.90;;;;;;5108134;28;20047;-63
2023/09/19 13:09:38;;;;;;;0.90;0.30;;;17.80;99.90;;;;;;5104030;28;20036;-63
2023/09/19 13:12:37;;;;;;;1.90;0.45;;;17.80;99.90;;;;;;5105518;28;20055;-62
2023/09/19 13:15:14;;;;;;;2.65;0.50;;;17.90;99.90;;;;;;5107202;28;20042;-61